sensor_id;sensor_type;location;lat;lon;timestamp;P1;durP1;ratioP1;P2;durP2;ratioP2
8562;SDS011;16392;52.508;13.468;2024-03-02T00:00:26;51.33;;;24.83;;
8562;SDS011;16392;52.508;13.468;2024-03-02T00:02:55;54.10;;;25.80;;
8562;SDS011;16392;52.508;13.468;2024-03-02T00:05:22;50.78;;;24.48;;
8562;SDS011;16392;52.508;13.468;2024-03-02T00:07:52;53.45;;;27.10;;
8562;SDS011;16392;52.508;13.468;2024-03-02T00:10:21;54.28;;;26.45;;
8562;SDS011;16392;52.508;13.468;2024-03-02T00:12:50;54.60;;;25.58;;
8562;SDS011;16392;52.508;13.468;2024-03-02T00:15:26;49.45;;;24.48;;
8562;SDS011;16392;52.508;13.468;2024-03-02T00:18:18;54.05;;;27.23;;
8562;SDS011;16392;52.508;13.468;2024-03-02T00:20:47;56.92;;;25.55;;
8562;SDS011;16392;52.508;13.468;2024-03-02T00:23:14;49.03;;;25.20;;
8562;SDS011;16392;52.508;13.468;2024-03-02T00:25:43;57.97;;;26.35;;
8562;SDS011;16392;52.508;13.468;2024-03-02T00:28:13;54.35;;;25.08;;
8562;SDS011;16392;52.508;13.468;2024-03-02T00:30:46;53.00;;;24.55;;
8562;SDS011;16392;52.508;13.468;2024-03-02T00:33:20;52.50;;;25.27;;
8562;SDS011;16392;52.508;13.468;2024-03-02T00:35:47;48.17;;;23.63;;
8562;SDS011;16392;52.508;13.468;2024-03-02T00:38:15;52.80;;;25.85;;
8562;SDS011;16392;52.508;13.468;2024-03-02T00:40:42;53.88;;;24.88;;
8562;SDS011;16392;52.508;13.468;2024-03-02T00:43:11;53.03;;;25.30;;
8562;SDS011;16392;52.508;13.468;2024-03-02T00:46:01;54.72;;;25.98;;
8562;SDS011;16392;52.508;13.468;2024-03-02T00:48:29;57.42;;;25.77;;
8562;SDS011;16392;52.508;13.468;2024-03-02T00:50:56;58.00;;;26.13;;
8562;SDS011;16392;52.508;13.468;2024-03-02T00:53:24;61.72;;;28.23;;
8562;SDS011;16392;52.508;13.468;2024-03-02T00:55:52;49.63;;;26.17;;
8562;SDS011;16392;52.508;13.468;2024-03-02T00:58:19;52.08;;;26.48;;
8562;SDS011;16392;52.508;13.468;2024-03-02T01:00:46;59.10;;;28.77;;
8562;SDS011;16392;52.508;13.468;2024-03-02T01:03:13;57.17;;;27.42;;
8562;SDS011;16392;52.508;13.468;2024-03-02T01:05:42;58.70;;;27.35;;
8562;SDS011;16392;52.508;13.468;2024-03-02T01:08:09;53.97;;;22.63;;
8562;SDS011;16392;52.508;13.468;2024-03-02T01:10:36;51.85;;;25.63;;
8562;SDS011;16392;52.508;13.468;2024-03-02T01:13:03;53.40;;;25.80;;
8562;SDS011;16392;52.508;13.468;2024-03-02T01:15:30;53.05;;;26.58;;
8562;SDS011;16392;52.508;13.468;2024-03-02T01:17:57;56.70;;;27.67;;
8562;SDS011;16392;52.508;13.468;2024-03-02T01:20:24;51.75;;;26.10;;
8562;SDS011;16392;52.508;13.468;2024-03-02T01:22:52;58.20;;;26.98;;
8562;SDS011;16392;52.508;13.468;2024-03-02T01:25:19;58.72;;;27.38;;
8562;SDS011;16392;52.508;13.468;2024-03-02T01:27:45;57.50;;;27.42;;
8562;SDS011;16392;52.508;13.468;2024-03-02T01:30:12;63.05;;;28.85;;
8562;SDS011;16392;52.508;13.468;2024-03-02T01:32:39;60.38;;;27.98;;
8562;SDS011;16392;52.508;13.468;2024-03-02T01:35:06;55.33;;;27.33;;
8562;SDS011;16392;52.508;13.468;2024-03-02T01:37:33;58.67;;;26.92;;
8562;SDS011;16392;52.508;13.468;2024-03-02T01:40:01;54.33;;;26.75;;
8562;SDS011;16392;52.508;13.468;2024-03-02T01:42:33;62.20;;;27.67;;
8562;SDS011;16392;52.508;13.468;2024-03-02T01:45:00;56.35;;;28.38;;
8562;SDS011;16392;52.508;13.468;2024-03-02T01:47:27;59.65;;;28.42;;
8562;SDS011;16392;52.508;13.468;2024-03-02T01:49:53;61.72;;;29.95;;
8562;SDS011;16392;52.508;13.468;2024-03-02T01:52:20;50.80;;;29.10;;
8562;SDS011;16392;52.508;13.468;2024-03-02T01:54:47;57.30;;;28.05;;
8562;SDS011;16392;52.508;13.468;2024-03-02T01:57:14;65.88;;;30.45;;
8562;SDS011;16392;52.508;13.468;2024-03-02T01:59:41;60.60;;;29.15;;
8562;SDS011;16392;52.508;13.468;2024-03-02T02:02:08;64.05;;;29.33;;
8562;SDS011;16392;52.508;13.468;2024-03-02T02:04:35;66.18;;;27.75;;
8562;SDS011;16392;52.508;13.468;2024-03-02T02:07:01;61.40;;;29.05;;
8562;SDS011;16392;52.508;13.468;2024-03-02T02:09:28;57.97;;;29.80;;
8562;SDS011;16392;52.508;13.468;2024-03-02T02:11:55;68.85;;;30.58;;
8562;SDS011;16392;52.508;13.468;2024-03-02T02:14:23;67.60;;;31.05;;
8562;SDS011;16392;52.508;13.468;2024-03-02T02:16:50;60.70;;;31.05;;
8562;SDS011;16392;52.508;13.468;2024-03-02T02:19:18;63.10;;;30.77;;
8562;SDS011;16392;52.508;13.468;2024-03-02T02:21:45;66.53;;;30.90;;
8562;SDS011;16392;52.508;13.468;2024-03-02T02:24:12;64.90;;;28.75;;
8562;SDS011;16392;52.508;13.468;2024-03-02T02:26:39;61.30;;;29.13;;
8562;SDS011;16392;52.508;13.468;2024-03-02T02:29:05;68.18;;;30.42;;
8562;SDS011;16392;52.508;13.468;2024-03-02T02:31:36;62.20;;;29.35;;
8562;SDS011;16392;52.508;13.468;2024-03-02T02:34:03;57.83;;;29.27;;
8562;SDS011;16392;52.508;13.468;2024-03-02T02:36:30;66.75;;;30.10;;
8562;SDS011;16392;52.508;13.468;2024-03-02T02:38:58;63.92;;;29.73;;
8562;SDS011;16392;52.508;13.468;2024-03-02T02:41:30;67.65;;;31.00;;
8562;SDS011;16392;52.508;13.468;2024-03-02T02:43:57;64.50;;;29.83;;
8562;SDS011;16392;52.508;13.468;2024-03-02T02:46:23;74.10;;;31.95;;
8562;SDS011;16392;52.508;13.468;2024-03-02T02:48:51;62.30;;;28.55;;
8562;SDS011;16392;52.508;13.468;2024-03-02T02:51:18;67.95;;;30.83;;
8562;SDS011;16392;52.508;13.468;2024-03-02T02:53:45;62.25;;;31.58;;
8562;SDS011;16392;52.508;13.468;2024-03-02T02:56:14;53.47;;;27.65;;
8562;SDS011;16392;52.508;13.468;2024-03-02T02:58:41;62.35;;;31.13;;
8562;SDS011;16392;52.508;13.468;2024-03-02T03:01:08;58.78;;;28.13;;
8562;SDS011;16392;52.508;13.468;2024-03-02T03:03:35;65.38;;;29.27;;
8562;SDS011;16392;52.508;13.468;2024-03-02T03:06:02;64.25;;;29.55;;
8562;SDS011;16392;52.508;13.468;2024-03-02T03:08:28;61.20;;;29.90;;
8562;SDS011;16392;52.508;13.468;2024-03-02T03:10:55;62.08;;;30.13;;
8562;SDS011;16392;52.508;13.468;2024-03-02T03:13:23;63.28;;;28.83;;
8562;SDS011;16392;52.508;13.468;2024-03-02T03:15:50;58.70;;;28.42;;
8562;SDS011;16392;52.508;13.468;2024-03-02T03:18:18;62.53;;;27.98;;
8562;SDS011;16392;52.508;13.468;2024-03-02T03:20:45;57.05;;;28.00;;
8562;SDS011;16392;52.508;13.468;2024-03-02T03:23:12;58.78;;;27.35;;
8562;SDS011;16392;52.508;13.468;2024-03-02T03:25:40;59.67;;;28.45;;
8562;SDS011;16392;52.508;13.468;2024-03-02T03:28:07;63.25;;;29.95;;
8562;SDS011;16392;52.508;13.468;2024-03-02T03:30:36;57.75;;;28.77;;
8562;SDS011;16392;52.508;13.468;2024-03-02T03:33:03;63.50;;;29.45;;
8562;SDS011;16392;52.508;13.468;2024-03-02T03:35:31;60.42;;;27.98;;
8562;SDS011;16392;52.508;13.468;2024-03-02T03:37:58;54.90;;;25.80;;
8562;SDS011;16392;52.508;13.468;2024-03-02T03:40:24;54.47;;;26.25;;
8562;SDS011;16392;52.508;13.468;2024-03-02T03:42:51;62.75;;;27.75;;
8562;SDS011;16392;52.508;13.468;2024-03-02T03:45:18;59.35;;;28.75;;
8562;SDS011;16392;52.508;13.468;2024-03-02T03:47:46;61.40;;;27.60;;
8562;SDS011;16392;52.508;13.468;2024-03-02T03:50:13;64.95;;;27.05;;
8562;SDS011;16392;52.508;13.468;2024-03-02T03:52:40;57.90;;;27.83;;
8562;SDS011;16392;52.508;13.468;2024-03-02T03:55:07;53.92;;;27.13;;
8562;SDS011;16392;52.508;13.468;2024-03-02T03:57:35;60.08;;;26.92;;
8562;SDS011;16392;52.508;13.468;2024-03-02T04:00:02;55.03;;;27.83;;
8562;SDS011;16392;52.508;13.468;2024-03-02T04:02:29;56.92;;;27.02;;
8562;SDS011;16392;52.508;13.468;2024-03-02T04:04:57;55.25;;;28.33;;
8562;SDS011;16392;52.508;13.468;2024-03-02T04:07:24;54.92;;;27.08;;
8562;SDS011;16392;52.508;13.468;2024-03-02T04:09:51;53.35;;;26.85;;
8562;SDS011;16392;52.508;13.468;2024-03-02T04:12:17;57.08;;;27.30;;
8562;SDS011;16392;52.508;13.468;2024-03-02T04:14:44;51.17;;;25.92;;
8562;SDS011;16392;52.508;13.468;2024-03-02T04:17:11;53.42;;;26.90;;
8562;SDS011;16392;52.508;13.468;2024-03-02T04:19:38;60.97;;;27.60;;
8562;SDS011;16392;52.508;13.468;2024-03-02T04:22:06;57.78;;;27.33;;
8562;SDS011;16392;52.508;13.468;2024-03-02T04:24:33;52.38;;;26.48;;
8562;SDS011;16392;52.508;13.468;2024-03-02T04:27:00;52.65;;;26.27;;
8562;SDS011;16392;52.508;13.468;2024-03-02T04:29:27;56.15;;;26.40;;
8562;SDS011;16392;52.508;13.468;2024-03-02T04:31:54;59.60;;;27.23;;
8562;SDS011;16392;52.508;13.468;2024-03-02T04:34:21;50.90;;;26.25;;
8562;SDS011;16392;52.508;13.468;2024-03-02T04:36:48;57.30;;;27.33;;
8562;SDS011;16392;52.508;13.468;2024-03-02T04:39:17;57.75;;;26.27;;
8562;SDS011;16392;52.508;13.468;2024-03-02T04:41:43;51.25;;;25.95;;
8562;SDS011;16392;52.508;13.468;2024-03-02T04:44:11;57.97;;;25.25;;
8562;SDS011;16392;52.508;13.468;2024-03-02T04:46:37;55.53;;;25.08;;
8562;SDS011;16392;52.508;13.468;2024-03-02T04:49:04;62.72;;;26.55;;
8562;SDS011;16392;52.508;13.468;2024-03-02T04:51:31;55.40;;;27.52;;
8562;SDS011;16392;52.508;13.468;2024-03-02T04:53:57;54.90;;;26.25;;
8562;SDS011;16392;52.508;13.468;2024-03-02T04:56:26;54.10;;;25.92;;
8562;SDS011;16392;52.508;13.468;2024-03-02T04:59:05;49.78;;;24.58;;
8562;SDS011;16392;52.508;13.468;2024-03-02T05:01:32;54.85;;;25.55;;
8562;SDS011;16392;52.508;13.468;2024-03-02T05:03:59;55.28;;;25.27;;
8562;SDS011;16392;52.508;13.468;2024-03-02T05:06:26;52.30;;;25.30;;
8562;SDS011;16392;52.508;13.468;2024-03-02T05:08:53;58.85;;;26.10;;
8562;SDS011;16392;52.508;13.468;2024-03-02T05:11:19;54.17;;;26.73;;
8562;SDS011;16392;52.508;13.468;2024-03-02T05:14:15;48.22;;;25.60;;
8562;SDS011;16392;52.508;13.468;2024-03-02T05:16:41;59.33;;;26.17;;
8562;SDS011;16392;52.508;13.468;2024-03-02T05:19:08;50.92;;;25.63;;
8562;SDS011;16392;52.508;13.468;2024-03-02T05:21:34;50.00;;;25.02;;
8562;SDS011;16392;52.508;13.468;2024-03-02T05:24:01;49.45;;;25.67;;
8562;SDS011;16392;52.508;13.468;2024-03-02T05:26:28;56.50;;;24.90;;
8562;SDS011;16392;52.508;13.468;2024-03-02T05:28:54;51.10;;;25.75;;
8562;SDS011;16392;52.508;13.468;2024-03-02T05:31:22;54.35;;;24.23;;
8562;SDS011;16392;52.508;13.468;2024-03-02T05:33:49;48.47;;;24.73;;
8562;SDS011;16392;52.508;13.468;2024-03-02T05:36:17;50.55;;;23.88;;
8562;SDS011;16392;52.508;13.468;2024-03-02T05:38:45;51.78;;;26.70;;
8562;SDS011;16392;52.508;13.468;2024-03-02T05:41:12;52.10;;;25.23;;
8562;SDS011;16392;52.508;13.468;2024-03-02T05:43:39;53.83;;;26.38;;
8562;SDS011;16392;52.508;13.468;2024-03-02T05:46:05;51.83;;;25.63;;
8562;SDS011;16392;52.508;13.468;2024-03-02T05:48:33;47.38;;;23.60;;
8562;SDS011;16392;52.508;13.468;2024-03-02T05:51:00;54.05;;;25.00;;
8562;SDS011;16392;52.508;13.468;2024-03-02T05:53:27;49.63;;;23.75;;
8562;SDS011;16392;52.508;13.468;2024-03-02T05:55:53;55.28;;;24.48;;
8562;SDS011;16392;52.508;13.468;2024-03-02T05:58:21;51.38;;;24.33;;
8562;SDS011;16392;52.508;13.468;2024-03-02T06:01:08;50.85;;;23.15;;
8562;SDS011;16392;52.508;13.468;2024-03-02T06:03:36;49.53;;;23.70;;
8562;SDS011;16392;52.508;13.468;2024-03-02T06:06:03;51.70;;;25.27;;
8562;SDS011;16392;52.508;13.468;2024-03-02T06:08:30;55.92;;;26.67;;
8562;SDS011;16392;52.508;13.468;2024-03-02T06:10:57;54.45;;;25.90;;
8562;SDS011;16392;52.508;13.468;2024-03-02T06:13:24;50.63;;;25.45;;
8562;SDS011;16392;52.508;13.468;2024-03-02T06:15:51;54.30;;;26.42;;
8562;SDS011;16392;52.508;13.468;2024-03-02T06:18:18;63.10;;;27.95;;
8562;SDS011;16392;52.508;13.468;2024-03-02T06:20:46;68.13;;;28.42;;
8562;SDS011;16392;52.508;13.468;2024-03-02T06:23:14;63.10;;;27.92;;
8562;SDS011;16392;52.508;13.468;2024-03-02T06:25:41;69.82;;;28.85;;
8562;SDS011;16392;52.508;13.468;2024-03-02T06:28:07;59.05;;;27.30;;
8562;SDS011;16392;52.508;13.468;2024-03-02T06:30:34;67.18;;;29.25;;
8562;SDS011;16392;52.508;13.468;2024-03-02T06:33:01;62.53;;;27.45;;
8562;SDS011;16392;52.508;13.468;2024-03-02T06:35:29;63.88;;;28.55;;
8562;SDS011;16392;52.508;13.468;2024-03-02T06:37:56;64.18;;;28.75;;
8562;SDS011;16392;52.508;13.468;2024-03-02T06:40:23;64.50;;;28.75;;
8562;SDS011;16392;52.508;13.468;2024-03-02T06:42:49;60.13;;;28.20;;
8562;SDS011;16392;52.508;13.468;2024-03-02T06:45:16;54.95;;;26.88;;
8562;SDS011;16392;52.508;13.468;2024-03-02T06:47:43;61.67;;;27.02;;
8562;SDS011;16392;52.508;13.468;2024-03-02T06:50:10;63.08;;;27.27;;
8562;SDS011;16392;52.508;13.468;2024-03-02T06:52:37;55.00;;;26.58;;
8562;SDS011;16392;52.508;13.468;2024-03-02T06:55:06;55.78;;;27.00;;
8562;SDS011;16392;52.508;13.468;2024-03-02T06:57:33;53.72;;;26.25;;
8562;SDS011;16392;52.508;13.468;2024-03-02T06:59:59;59.05;;;27.42;;
8562;SDS011;16392;52.508;13.468;2024-03-02T07:02:26;61.42;;;26.17;;
8562;SDS011;16392;52.508;13.468;2024-03-02T07:04:53;58.50;;;27.60;;
8562;SDS011;16392;52.508;13.468;2024-03-02T07:07:20;56.63;;;26.10;;
8562;SDS011;16392;52.508;13.468;2024-03-02T07:09:47;58.85;;;25.20;;
8562;SDS011;16392;52.508;13.468;2024-03-02T07:12:15;55.15;;;26.70;;
8562;SDS011;16392;52.508;13.468;2024-03-02T07:14:41;55.75;;;26.08;;
8562;SDS011;16392;52.508;13.468;2024-03-02T07:17:36;55.17;;;27.52;;
8562;SDS011;16392;52.508;13.468;2024-03-02T07:20:03;55.10;;;27.45;;
8562;SDS011;16392;52.508;13.468;2024-03-02T07:22:31;58.13;;;27.30;;
8562;SDS011;16392;52.508;13.468;2024-03-02T07:24:58;51.90;;;27.08;;
8562;SDS011;16392;52.508;13.468;2024-03-02T07:27:26;62.65;;;27.52;;
8562;SDS011;16392;52.508;13.468;2024-03-02T07:29:53;53.40;;;26.73;;
8562;SDS011;16392;52.508;13.468;2024-03-02T07:32:19;55.70;;;26.40;;
8562;SDS011;16392;52.508;13.468;2024-03-02T07:34:47;58.58;;;27.15;;
8562;SDS011;16392;52.508;13.468;2024-03-02T07:37:15;55.15;;;26.73;;
8562;SDS011;16392;52.508;13.468;2024-03-02T07:39:43;56.30;;;27.67;;
8562;SDS011;16392;52.508;13.468;2024-03-02T07:42:10;61.90;;;27.52;;
8562;SDS011;16392;52.508;13.468;2024-03-02T07:44:38;49.53;;;24.25;;
8562;SDS011;16392;52.508;13.468;2024-03-02T07:47:05;55.05;;;26.75;;
8562;SDS011;16392;52.508;13.468;2024-03-02T07:49:32;49.88;;;26.27;;
8562;SDS011;16392;52.508;13.468;2024-03-02T07:51:59;55.92;;;27.25;;
8562;SDS011;16392;52.508;13.468;2024-03-02T07:54:26;54.90;;;24.98;;
8562;SDS011;16392;52.508;13.468;2024-03-02T07:56:53;50.33;;;25.10;;
8562;SDS011;16392;52.508;13.468;2024-03-02T07:59:19;52.05;;;24.90;;
8562;SDS011;16392;52.508;13.468;2024-03-02T08:01:48;52.63;;;25.23;;
8562;SDS011;16392;52.508;13.468;2024-03-02T08:04:15;47.15;;;25.35;;
8562;SDS011;16392;52.508;13.468;2024-03-02T08:06:42;50.05;;;24.77;;
8562;SDS011;16392;52.508;13.468;2024-03-02T08:09:09;48.55;;;23.63;;
8562;SDS011;16392;52.508;13.468;2024-03-02T08:11:35;47.67;;;23.50;;
8562;SDS011;16392;52.508;13.468;2024-03-02T08:14:03;49.40;;;24.65;;
8562;SDS011;16392;52.508;13.468;2024-03-02T08:16:30;59.17;;;26.20;;
8562;SDS011;16392;52.508;13.468;2024-03-02T08:18:59;45.13;;;23.35;;
8562;SDS011;16392;52.508;13.468;2024-03-02T08:21:26;50.88;;;25.00;;
8562;SDS011;16392;52.508;13.468;2024-03-02T08:23:55;52.85;;;23.73;;
8562;SDS011;16392;52.508;13.468;2024-03-02T08:26:23;52.40;;;25.25;;
8562;SDS011;16392;52.508;13.468;2024-03-02T08:28:50;50.72;;;23.70;;
8562;SDS011;16392;52.508;13.468;2024-03-02T08:31:17;53.42;;;23.77;;
8562;SDS011;16392;52.508;13.468;2024-03-02T08:33:43;51.83;;;23.40;;
8562;SDS011;16392;52.508;13.468;2024-03-02T08:36:11;46.10;;;22.30;;
8562;SDS011;16392;52.508;13.468;2024-03-02T08:38:40;44.60;;;23.58;;
8562;SDS011;16392;52.508;13.468;2024-03-02T08:41:09;47.83;;;22.55;;
8562;SDS011;16392;52.508;13.468;2024-03-02T08:43:38;44.83;;;22.40;;
8562;SDS011;16392;52.508;13.468;2024-03-02T08:46:06;47.70;;;21.73;;
8562;SDS011;16392;52.508;13.468;2024-03-02T08:48:33;42.42;;;20.30;;
8562;SDS011;16392;52.508;13.468;2024-03-02T08:51:00;45.30;;;22.85;;
8562;SDS011;16392;52.508;13.468;2024-03-02T08:53:28;40.55;;;21.27;;
8562;SDS011;16392;52.508;13.468;2024-03-02T08:55:55;43.58;;;20.90;;
8562;SDS011;16392;52.508;13.468;2024-03-02T08:58:22;40.47;;;20.17;;
8562;SDS011;16392;52.508;13.468;2024-03-02T09:00:49;45.22;;;22.73;;
8562;SDS011;16392;52.508;13.468;2024-03-02T09:03:16;45.42;;;21.92;;
8562;SDS011;16392;52.508;13.468;2024-03-02T09:05:42;43.78;;;22.42;;
8562;SDS011;16392;52.508;13.468;2024-03-02T09:08:10;44.78;;;23.23;;
8562;SDS011;16392;52.508;13.468;2024-03-02T09:10:37;46.85;;;22.25;;
8562;SDS011;16392;52.508;13.468;2024-03-02T09:13:05;43.67;;;22.27;;
8562;SDS011;16392;52.508;13.468;2024-03-02T09:15:32;40.70;;;20.27;;
8562;SDS011;16392;52.508;13.468;2024-03-02T09:18:02;44.50;;;21.65;;
8562;SDS011;16392;52.508;13.468;2024-03-02T09:20:29;47.75;;;21.95;;
8562;SDS011;16392;52.508;13.468;2024-03-02T09:22:55;41.53;;;20.70;;
8562;SDS011;16392;52.508;13.468;2024-03-02T09:25:22;43.13;;;22.50;;
8562;SDS011;16392;52.508;13.468;2024-03-02T09:27:50;47.05;;;22.05;;
8562;SDS011;16392;52.508;13.468;2024-03-02T09:30:17;42.10;;;22.20;;
8562;SDS011;16392;52.508;13.468;2024-03-02T09:32:43;45.10;;;20.65;;
8562;SDS011;16392;52.508;13.468;2024-03-02T09:35:10;39.55;;;20.00;;
8562;SDS011;16392;52.508;13.468;2024-03-02T09:37:38;38.65;;;19.17;;
8562;SDS011;16392;52.508;13.468;2024-03-02T09:40:05;40.00;;;18.08;;
8562;SDS011;16392;52.508;13.468;2024-03-02T09:42:32;37.33;;;18.13;;
8562;SDS011;16392;52.508;13.468;2024-03-02T09:45:00;35.80;;;18.83;;
8562;SDS011;16392;52.508;13.468;2024-03-02T09:47:28;36.40;;;18.45;;
8562;SDS011;16392;52.508;13.468;2024-03-02T09:49:55;35.50;;;18.05;;
8562;SDS011;16392;52.508;13.468;2024-03-02T09:52:22;35.65;;;17.65;;
8562;SDS011;16392;52.508;13.468;2024-03-02T09:54:49;32.92;;;16.55;;
8562;SDS011;16392;52.508;13.468;2024-03-02T09:57:15;33.80;;;17.67;;
8562;SDS011;16392;52.508;13.468;2024-03-02T09:59:43;30.42;;;15.95;;
8562;SDS011;16392;52.508;13.468;2024-03-02T10:02:11;32.38;;;17.50;;
8562;SDS011;16392;52.508;13.468;2024-03-02T10:04:38;32.88;;;16.52;;
8562;SDS011;16392;52.508;13.468;2024-03-02T10:07:11;35.55;;;16.70;;
8562;SDS011;16392;52.508;13.468;2024-03-02T10:09:39;32.75;;;18.13;;
8562;SDS011;16392;52.508;13.468;2024-03-02T10:12:10;34.25;;;15.93;;
8562;SDS011;16392;52.508;13.468;2024-03-02T10:14:38;30.95;;;16.88;;
8562;SDS011;16392;52.508;13.468;2024-03-02T10:17:06;32.10;;;16.33;;
8562;SDS011;16392;52.508;13.468;2024-03-02T10:19:41;30.73;;;15.82;;
8562;SDS011;16392;52.508;13.468;2024-03-02T10:22:08;26.55;;;14.73;;
8562;SDS011;16392;52.508;13.468;2024-03-02T10:24:37;25.27;;;13.35;;
8562;SDS011;16392;52.508;13.468;2024-03-02T10:27:09;27.52;;;14.93;;
8562;SDS011;16392;52.508;13.468;2024-03-02T10:29:41;30.05;;;14.75;;
8562;SDS011;16392;52.508;13.468;2024-03-02T10:32:09;24.85;;;14.35;;
8562;SDS011;16392;52.508;13.468;2024-03-02T10:34:37;22.73;;;13.25;;
8562;SDS011;16392;52.508;13.468;2024-03-02T10:37:07;27.02;;;14.18;;
8562;SDS011;16392;52.508;13.468;2024-03-02T10:39:34;24.88;;;13.82;;
8562;SDS011;16392;52.508;13.468;2024-03-02T10:42:02;26.88;;;14.07;;
8562;SDS011;16392;52.508;13.468;2024-03-02T10:44:31;22.23;;;11.55;;
8562;SDS011;16392;52.508;13.468;2024-03-02T10:47:00;26.23;;;13.65;;
8562;SDS011;16392;52.508;13.468;2024-03-02T10:49:29;22.23;;;11.73;;
8562;SDS011;16392;52.508;13.468;2024-03-02T10:51:58;23.42;;;12.10;;
8562;SDS011;16392;52.508;13.468;2024-03-02T10:54:27;23.13;;;12.25;;
8562;SDS011;16392;52.508;13.468;2024-03-02T10:57:01;22.23;;;11.23;;
8562;SDS011;16392;52.508;13.468;2024-03-02T10:59:33;22.70;;;11.25;;
8562;SDS011;16392;52.508;13.468;2024-03-02T11:02:01;20.67;;;11.65;;
8562;SDS011;16392;52.508;13.468;2024-03-02T11:04:32;21.95;;;11.32;;
8562;SDS011;16392;52.508;13.468;2024-03-02T11:07:02;24.25;;;12.35;;
8562;SDS011;16392;52.508;13.468;2024-03-02T11:09:33;20.60;;;11.35;;
8562;SDS011;16392;52.508;13.468;2024-03-02T11:12:02;17.70;;;10.57;;
8562;SDS011;16392;52.508;13.468;2024-03-02T11:14:34;21.63;;;11.18;;
8562;SDS011;16392;52.508;13.468;2024-03-02T11:17:08;22.23;;;11.77;;
8562;SDS011;16392;52.508;13.468;2024-03-02T11:19:36;25.08;;;10.73;;
8562;SDS011;16392;52.508;13.468;2024-03-02T11:22:05;20.30;;;10.82;;
8562;SDS011;16392;52.508;13.468;2024-03-02T11:24:36;21.35;;;11.32;;
8562;SDS011;16392;52.508;13.468;2024-03-02T11:27:03;22.05;;;12.52;;
8562;SDS011;16392;52.508;13.468;2024-03-02T11:29:45;22.58;;;12.57;;
8562;SDS011;16392;52.508;13.468;2024-03-02T11:32:17;20.13;;;11.40;;
8562;SDS011;16392;52.508;13.468;2024-03-02T11:34:48;18.52;;;11.23;;
8562;SDS011;16392;52.508;13.468;2024-03-02T11:37:17;18.73;;;11.48;;
8562;SDS011;16392;52.508;13.468;2024-03-02T11:39:48;18.23;;;11.07;;
8562;SDS011;16392;52.508;13.468;2024-03-02T11:42:16;22.85;;;11.02;;
8562;SDS011;16392;52.508;13.468;2024-03-02T11:44:44;20.17;;;11.05;;
8562;SDS011;16392;52.508;13.468;2024-03-02T11:47:13;22.65;;;11.77;;
8562;SDS011;16392;52.508;13.468;2024-03-02T11:49:43;21.80;;;10.73;;
8562;SDS011;16392;52.508;13.468;2024-03-02T11:52:12;21.63;;;11.77;;
8562;SDS011;16392;52.508;13.468;2024-03-02T11:54:40;17.75;;;10.82;;
8562;SDS011;16392;52.508;13.468;2024-03-02T11:57:13;20.20;;;11.50;;
8562;SDS011;16392;52.508;13.468;2024-03-02T11:59:41;22.27;;;11.48;;
8562;SDS011;16392;52.508;13.468;2024-03-02T12:02:12;23.27;;;11.35;;
8562;SDS011;16392;52.508;13.468;2024-03-02T12:04:42;22.50;;;10.65;;
8562;SDS011;16392;52.508;13.468;2024-03-02T12:07:10;21.52;;;11.20;;
8562;SDS011;16392;52.508;13.468;2024-03-02T12:09:38;18.08;;;10.30;;
8562;SDS011;16392;52.508;13.468;2024-03-02T12:12:07;21.85;;;10.90;;
8562;SDS011;16392;52.508;13.468;2024-03-02T12:14:37;18.98;;;10.18;;
8562;SDS011;16392;52.508;13.468;2024-03-02T12:17:10;16.38;;;9.20;;
8562;SDS011;16392;52.508;13.468;2024-03-02T12:19:37;18.45;;;9.90;;
8562;SDS011;16392;52.508;13.468;2024-03-02T12:22:06;17.70;;;10.02;;
8562;SDS011;16392;52.508;13.468;2024-03-02T12:24:33;16.05;;;9.48;;
8562;SDS011;16392;52.508;13.468;2024-03-02T12:26:59;17.63;;;10.90;;
8562;SDS011;16392;52.508;13.468;2024-03-02T12:29:27;19.30;;;10.48;;
8562;SDS011;16392;52.508;13.468;2024-03-02T12:31:56;16.40;;;9.25;;
8562;SDS011;16392;52.508;13.468;2024-03-02T12:34:25;15.48;;;9.35;;
8562;SDS011;16392;52.508;13.468;2024-03-02T12:36:52;19.00;;;10.63;;
8562;SDS011;16392;52.508;13.468;2024-03-02T12:39:23;14.50;;;8.70;;
8562;SDS011;16392;52.508;13.468;2024-03-02T12:41:55;17.15;;;10.13;;
8562;SDS011;16392;52.508;13.468;2024-03-02T12:44:22;12.23;;;8.10;;
8562;SDS011;16392;52.508;13.468;2024-03-02T12:46:49;17.08;;;9.15;;
8562;SDS011;16392;52.508;13.468;2024-03-02T12:49:17;14.48;;;8.95;;
8562;SDS011;16392;52.508;13.468;2024-03-02T12:51:49;15.55;;;7.75;;
8562;SDS011;16392;52.508;13.468;2024-03-02T12:54:18;13.88;;;8.55;;
8562;SDS011;16392;52.508;13.468;2024-03-02T12:56:49;15.07;;;8.00;;
8562;SDS011;16392;52.508;13.468;2024-03-02T12:59:17;13.32;;;8.00;;
8562;SDS011;16392;52.508;13.468;2024-03-02T13:01:51;15.02;;;8.93;;
8562;SDS011;16392;52.508;13.468;2024-03-02T13:04:22;14.80;;;8.15;;
8562;SDS011;16392;52.508;13.468;2024-03-02T13:06:56;14.45;;;8.20;;
8562;SDS011;16392;52.508;13.468;2024-03-02T13:09:27;14.13;;;8.40;;
8562;SDS011;16392;52.508;13.468;2024-03-02T13:11:58;17.55;;;9.77;;
8562;SDS011;16392;52.508;13.468;2024-03-02T13:14:31;15.43;;;9.27;;
8562;SDS011;16392;52.508;13.468;2024-03-02T13:17:04;18.10;;;9.35;;
8562;SDS011;16392;52.508;13.468;2024-03-02T13:19:33;15.88;;;9.48;;
8562;SDS011;16392;52.508;13.468;2024-03-02T13:22:07;16.85;;;9.25;;
8562;SDS011;16392;52.508;13.468;2024-03-02T13:24:47;15.50;;;9.05;;
8562;SDS011;16392;52.508;13.468;2024-03-02T13:27:15;14.05;;;8.50;;
8562;SDS011;16392;52.508;13.468;2024-03-02T13:29:45;17.58;;;9.95;;
8562;SDS011;16392;52.508;13.468;2024-03-02T13:32:14;17.98;;;9.98;;
8562;SDS011;16392;52.508;13.468;2024-03-02T13:34:42;16.48;;;9.40;;
8562;SDS011;16392;52.508;13.468;2024-03-02T13:37:10;16.17;;;8.63;;
8562;SDS011;16392;52.508;13.468;2024-03-02T13:39:37;14.35;;;8.85;;
8562;SDS011;16392;52.508;13.468;2024-03-02T13:42:07;17.10;;;9.20;;
8562;SDS011;16392;52.508;13.468;2024-03-02T13:44:34;13.32;;;8.50;;
8562;SDS011;16392;52.508;13.468;2024-03-02T13:47:02;17.30;;;9.35;;
8562;SDS011;16392;52.508;13.468;2024-03-02T13:49:30;15.65;;;8.63;;
8562;SDS011;16392;52.508;13.468;2024-03-02T13:52:05;14.23;;;8.25;;
8562;SDS011;16392;52.508;13.468;2024-03-02T13:54:40;14.70;;;8.52;;
8562;SDS011;16392;52.508;13.468;2024-03-02T13:57:08;10.25;;;6.47;;
8562;SDS011;16392;52.508;13.468;2024-03-02T13:59:34;10.70;;;6.70;;
8562;SDS011;16392;52.508;13.468;2024-03-02T14:02:01;12.30;;;7.35;;
8562;SDS011;16392;52.508;13.468;2024-03-02T14:04:29;11.65;;;6.80;;
8562;SDS011;16392;52.508;13.468;2024-03-02T14:07:02;14.10;;;7.80;;
8562;SDS011;16392;52.508;13.468;2024-03-02T14:09:38;13.23;;;7.18;;
8562;SDS011;16392;52.508;13.468;2024-03-02T14:12:08;11.82;;;7.55;;
8562;SDS011;16392;52.508;13.468;2024-03-02T14:14:41;14.90;;;7.75;;
8562;SDS011;16392;52.508;13.468;2024-03-02T14:17:08;14.45;;;7.75;;
8562;SDS011;16392;52.508;13.468;2024-03-02T14:19:41;12.52;;;8.35;;
8562;SDS011;16392;52.508;13.468;2024-03-02T14:22:08;13.55;;;7.35;;
8562;SDS011;16392;52.508;13.468;2024-03-02T14:24:35;11.95;;;6.65;;
8562;SDS011;16392;52.508;13.468;2024-03-02T14:27:04;10.30;;;6.93;;
8562;SDS011;16392;52.508;13.468;2024-03-02T14:29:31;12.25;;;7.28;;